sensor_id;sensor_type;location;lat;lon;timestamp;P1;durP1;ratioP1;P2;durP2;ratioP2
64244;SDS011;50584;29.058;-110.966;2022-07-06T00:01:23;1.45;;;1.17;;
64244;SDS011;50584;29.058;-110.966;2022-07-06T00:03:49;8.75;;;1.85;;
64244;SDS011;50584;29.058;-110.966;2022-07-06T00:06:15;9.75;;;1.55;;
64244;SDS011;50584;29.058;-110.966;2022-07-06T00:08:42;2.33;;;1.23;;
64244;SDS011;50584;29.058;-110.966;2022-07-06T00:11:08;8.80;;;1.23;;
64244;SDS011;50584;29.058;-110.966;2022-07-06T00:13:34;8.18;;;1.50;;
64244;SDS011;50584;29.058;-110.966;2022-07-06T00:16:00;1.73;;;0.80;;
64244;SDS011;50584;29.058;-110.966;2022-07-06T00:18:26;2.85;;;0.95;;
64244;SDS011;50584;29.058;-110.966;2022-07-06T00:20:51;4.93;;;1.23;;
64244;SDS011;50584;29.058;-110.966;2022-07-06T00:23:17;2.90;;;1.25;;
64244;SDS011;50584;29.058;-110.966;2022-07-06T00:25:43;7.38;;;1.60;;
64244;SDS011;50584;29.058;-110.966;2022-07-06T00:28:09;8.52;;;1.02;;
64244;SDS011;50584;29.058;-110.966;2022-07-06T00:30:35;5.78;;;1.17;;
64244;SDS011;50584;29.058;-110.966;2022-07-06T00:33:00;3.08;;;1.08;;
64244;SDS011;50584;29.058;-110.966;2022-07-06T00:35:26;1.05;;;0.95;;
64244;SDS011;50584;29.058;-110.966;2022-07-06T00:37:52;9.40;;;1.45;;
64244;SDS011;50584;29.058;-110.966;2022-07-06T00:40:18;8.27;;;1.23;;
64244;SDS011;50584;29.058;-110.966;2022-07-06T00:42:45;5.88;;;2.17;;
64244;SDS011;50584;29.058;-110.966;2022-07-06T00:45:11;5.88;;;1.63;;
64244;SDS011;50584;29.058;-110.966;2022-07-06T00:47:38;4.15;;;1.75;;
64244;SDS011;50584;29.058;-110.966;2022-07-06T00:50:05;7.63;;;2.00;;
64244;SDS011;50584;29.058;-110.966;2022-07-06T00:52:44;4.30;;;1.10;;
64244;SDS011;50584;29.058;-110.966;2022-07-06T00:55:10;5.20;;;1.20;;
64244;SDS011;50584;29.058;-110.966;2022-07-06T00:57:36;5.05;;;1.00;;
64244;SDS011;50584;29.058;-110.966;2022-07-06T01:00:07;3.22;;;1.23;;
64244;SDS011;50584;29.058;-110.966;2022-07-06T01:02:33;2.78;;;1.02;;
64244;SDS011;50584;29.058;-110.966;2022-07-06T01:05:00;8.43;;;1.20;;
64244;SDS011;50584;29.058;-110.966;2022-07-06T01:07:26;1.98;;;1.10;;
64244;SDS011;50584;29.058;-110.966;2022-07-06T01:09:53;9.38;;;1.20;;
64244;SDS011;50584;29.058;-110.966;2022-07-06T01:12:19;7.68;;;1.20;;
64244;SDS011;50584;29.058;-110.966;2022-07-06T01:14:45;2.05;;;1.42;;
64244;SDS011;50584;29.058;-110.966;2022-07-06T01:17:11;4.88;;;1.10;;
64244;SDS011;50584;29.058;-110.966;2022-07-06T01:19:38;9.23;;;1.55;;
64244;SDS011;50584;29.058;-110.966;2022-07-06T01:22:03;3.03;;;0.98;;
64244;SDS011;50584;29.058;-110.966;2022-07-06T01:24:29;5.53;;;1.45;;
64244;SDS011;50584;29.058;-110.966;2022-07-06T01:26:55;11.30;;;1.13;;
64244;SDS011;50584;29.058;-110.966;2022-07-06T01:29:21;5.65;;;1.35;;
64244;SDS011;50584;29.058;-110.966;2022-07-06T01:31:48;8.90;;;1.27;;
64244;SDS011;50584;29.058;-110.966;2022-07-06T01:34:14;4.57;;;1.38;;
64244;SDS011;50584;29.058;-110.966;2022-07-06T01:36:40;14.63;;;1.50;;
64244;SDS011;50584;29.058;-110.966;2022-07-06T01:39:07;2.08;;;1.00;;
64244;SDS011;50584;29.058;-110.966;2022-07-06T01:41:33;9.57;;;1.77;;
64244;SDS011;50584;29.058;-110.966;2022-07-06T01:43:59;8.82;;;1.00;;
64244;SDS011;50584;29.058;-110.966;2022-07-06T01:46:25;6.13;;;1.55;;
64244;SDS011;50584;29.058;-110.966;2022-07-06T01:48:51;2.28;;;0.82;;
64244;SDS011;50584;29.058;-110.966;2022-07-06T01:51:17;7.03;;;1.17;;
64244;SDS011;50584;29.058;-110.966;2022-07-06T01:53:43;8.95;;;1.08;;
64244;SDS011;50584;29.058;-110.966;2022-07-06T01:56:09;8.65;;;1.30;;
64244;SDS011;50584;29.058;-110.966;2022-07-06T01:58:35;7.07;;;1.42;;
64244;SDS011;50584;29.058;-110.966;2022-07-06T02:01:00;6.40;;;1.13;;
64244;SDS011;50584;29.058;-110.966;2022-07-06T02:03:26;4.15;;;1.40;;
64244;SDS011;50584;29.058;-110.966;2022-07-06T02:05:52;10.60;;;1.80;;
64244;SDS011;50584;29.058;-110.966;2022-07-06T02:08:18;4.10;;;1.30;;
64244;SDS011;50584;29.058;-110.966;2022-07-06T02:10:44;5.78;;;1.40;;
64244;SDS011;50584;29.058;-110.966;2022-07-06T02:13:10;7.30;;;1.40;;
64244;SDS011;50584;29.058;-110.966;2022-07-06T02:15:35;7.97;;;1.98;;
64244;SDS011;50584;29.058;-110.966;2022-07-06T02:18:04;7.38;;;1.48;;
64244;SDS011;50584;29.058;-110.966;2022-07-06T02:20:30;6.60;;;1.45;;
64244;SDS011;50584;29.058;-110.966;2022-07-06T02:22:56;2.85;;;1.65;;
64244;SDS011;50584;29.058;-110.966;2022-07-06T02:25:21;4.82;;;1.48;;
64244;SDS011;50584;29.058;-110.966;2022-07-06T02:27:47;10.85;;;1.70;;
64244;SDS011;50584;29.058;-110.966;2022-07-06T02:30:13;2.38;;;1.98;;
64244;SDS011;50584;29.058;-110.966;2022-07-06T02:32:39;5.28;;;1.98;;
64244;SDS011;50584;29.058;-110.966;2022-07-06T02:35:05;6.25;;;1.73;;
64244;SDS011;50584;29.058;-110.966;2022-07-06T02:37:31;7.50;;;1.23;;
64244;SDS011;50584;29.058;-110.966;2022-07-06T02:39:57;4.93;;;1.52;;
64244;SDS011;50584;29.058;-110.966;2022-07-06T02:42:22;4.38;;;1.40;;
64244;SDS011;50584;29.058;-110.966;2022-07-06T02:44:48;6.05;;;2.00;;
64244;SDS011;50584;29.058;-110.966;2022-07-06T02:47:14;9.07;;;2.15;;
64244;SDS011;50584;29.058;-110.966;2022-07-06T02:49:40;2.75;;;1.88;;
64244;SDS011;50584;29.058;-110.966;2022-07-06T02:52:05;6.38;;;1.92;;
64244;SDS011;50584;29.058;-110.966;2022-07-06T02:54:31;11.90;;;2.03;;
64244;SDS011;50584;29.058;-110.966;2022-07-06T02:56:57;2.83;;;1.55;;
64244;SDS011;50584;29.058;-110.966;2022-07-06T02:59:23;2.42;;;1.58;;
64244;SDS011;50584;29.058;-110.966;2022-07-06T03:01:49;8.52;;;1.88;;
64244;SDS011;50584;29.058;-110.966;2022-07-06T03:04:15;12.93;;;2.20;;
64244;SDS011;50584;29.058;-110.966;2022-07-06T03:06:40;7.60;;;2.40;;
64244;SDS011;50584;29.058;-110.966;2022-07-06T03:09:06;13.18;;;2.92;;
64244;SDS011;50584;29.058;-110.966;2022-07-06T03:11:32;6.93;;;2.40;;
64244;SDS011;50584;29.058;-110.966;2022-07-06T03:14:02;5.60;;;2.38;;
64244;SDS011;50584;29.058;-110.966;2022-07-06T03:16:28;8.48;;;2.40;;
64244;SDS011;50584;29.058;-110.966;2022-07-06T03:18:54;3.47;;;2.00;;
64244;SDS011;50584;29.058;-110.966;2022-07-06T03:21:20;10.38;;;2.60;;
64244;SDS011;50584;29.058;-110.966;2022-07-06T03:23:46;5.22;;;2.22;;
64244;SDS011;50584;29.058;-110.966;2022-07-06T03:26:11;15.60;;;2.33;;
64244;SDS011;50584;29.058;-110.966;2022-07-06T03:28:37;9.18;;;2.53;;
64244;SDS011;50584;29.058;-110.966;2022-07-06T03:31:03;9.48;;;2.20;;
64244;SDS011;50584;29.058;-110.966;2022-07-06T03:33:29;5.10;;;1.80;;
64244;SDS011;50584;29.058;-110.966;2022-07-06T03:35:54;4.10;;;2.00;;
64244;SDS011;50584;29.058;-110.966;2022-07-06T03:38:20;9.27;;;2.00;;
64244;SDS011;50584;29.058;-110.966;2022-07-06T03:40:46;5.85;;;1.52;;
64244;SDS011;50584;29.058;-110.966;2022-07-06T03:43:12;10.50;;;1.70;;
64244;SDS011;50584;29.058;-110.966;2022-07-06T03:45:38;6.53;;;2.03;;
64244;SDS011;50584;29.058;-110.966;2022-07-06T03:48:04;11.35;;;1.73;;
64244;SDS011;50584;29.058;-110.966;2022-07-06T03:50:30;9.52;;;2.15;;
64244;SDS011;50584;29.058;-110.966;2022-07-06T03:52:56;5.63;;;1.33;;
64244;SDS011;50584;29.058;-110.966;2022-07-06T03:55:21;3.42;;;1.30;;
64244;SDS011;50584;29.058;-110.966;2022-07-06T03:57:47;8.27;;;1.58;;
64244;SDS011;50584;29.058;-110.966;2022-07-06T04:00:13;2.67;;;1.25;;
64244;SDS011;50584;29.058;-110.966;2022-07-06T04:02:39;2.70;;;1.20;;
64244;SDS011;50584;29.058;-110.966;2022-07-06T04:05:05;9.07;;;1.40;;
64244;SDS011;50584;29.058;-110.966;2022-07-06T04:07:31;2.75;;;1.10;;
64244;SDS011;50584;29.058;-110.966;2022-07-06T04:09:57;5.07;;;1.98;;
64244;SDS011;50584;29.058;-110.966;2022-07-06T04:12:23;4.53;;;2.33;;
64244;SDS011;50584;29.058;-110.966;2022-07-06T04:14:49;2.97;;;2.03;;
64244;SDS011;50584;29.058;-110.966;2022-07-06T04:17:14;6.72;;;2.00;;
64244;SDS011;50584;29.058;-110.966;2022-07-06T04:19:58;3.63;;;1.65;;
64244;SDS011;50584;29.058;-110.966;2022-07-06T04:22:24;4.78;;;1.73;;
64244;SDS011;50584;29.058;-110.966;2022-07-06T04:24:50;10.88;;;1.10;;
64244;SDS011;50584;29.058;-110.966;2022-07-06T04:27:16;10.45;;;1.40;;
64244;SDS011;50584;29.058;-110.966;2022-07-06T04:29:42;1.98;;;1.20;;
64244;SDS011;50584;29.058;-110.966;2022-07-06T04:32:07;3.63;;;1.42;;
64244;SDS011;50584;29.058;-110.966;2022-07-06T04:34:33;5.05;;;1.80;;
64244;SDS011;50584;29.058;-110.966;2022-07-06T04:36:59;2.95;;;2.17;;
64244;SDS011;50584;29.058;-110.966;2022-07-06T04:39:25;5.32;;;1.40;;
64244;SDS011;50584;29.058;-110.966;2022-07-06T04:41:51;3.00;;;1.48;;
64244;SDS011;50584;29.058;-110.966;2022-07-06T04:44:17;6.32;;;3.35;;
64244;SDS011;50584;29.058;-110.966;2022-07-06T04:46:42;11.52;;;4.68;;
64244;SDS011;50584;29.058;-110.966;2022-07-06T04:49:08;6.75;;;1.85;;
64244;SDS011;50584;29.058;-110.966;2022-07-06T04:51:34;10.07;;;2.20;;
64244;SDS011;50584;29.058;-110.966;2022-07-06T04:54:00;7.93;;;2.08;;
64244;SDS011;50584;29.058;-110.966;2022-07-06T04:56:26;1.92;;;1.45;;
64244;SDS011;50584;29.058;-110.966;2022-07-06T04:58:52;3.72;;;1.70;;
64244;SDS011;50584;29.058;-110.966;2022-07-06T05:01:17;5.38;;;1.50;;
64244;SDS011;50584;29.058;-110.966;2022-07-06T05:03:43;8.75;;;1.83;;
64244;SDS011;50584;29.058;-110.966;2022-07-06T05:06:09;5.07;;;1.50;;
64244;SDS011;50584;29.058;-110.966;2022-07-06T05:08:35;2.92;;;1.65;;
64244;SDS011;50584;29.058;-110.966;2022-07-06T05:11:01;10.23;;;1.75;;
64244;SDS011;50584;29.058;-110.966;2022-07-06T05:13:26;3.63;;;1.77;;
64244;SDS011;50584;29.058;-110.966;2022-07-06T05:15:52;9.15;;;1.90;;
64244;SDS011;50584;29.058;-110.966;2022-07-06T05:18:18;3.17;;;1.75;;
64244;SDS011;50584;29.058;-110.966;2022-07-06T05:20:44;39.70;;;2.35;;
64244;SDS011;50584;29.058;-110.966;2022-07-06T05:23:10;12.45;;;2.08;;
64244;SDS011;50584;29.058;-110.966;2022-07-06T05:25:36;6.90;;;1.88;;
64244;SDS011;50584;29.058;-110.966;2022-07-06T05:28:02;7.78;;;1.60;;
64244;SDS011;50584;29.058;-110.966;2022-07-06T05:30:28;8.70;;;1.77;;
64244;SDS011;50584;29.058;-110.966;2022-07-06T05:32:54;9.35;;;1.90;;
64244;SDS011;50584;29.058;-110.966;2022-07-06T05:35:20;11.25;;;2.22;;
64244;SDS011;50584;29.058;-110.966;2022-07-06T05:37:46;2.60;;;1.52;;
64244;SDS011;50584;29.058;-110.966;2022-07-06T05:40:12;5.32;;;1.50;;
64244;SDS011;50584;29.058;-110.966;2022-07-06T05:42:37;6.40;;;2.17;;
64244;SDS011;50584;29.058;-110.966;2022-07-06T05:45:03;9.25;;;1.83;;
64244;SDS011;50584;29.058;-110.966;2022-07-06T05:47:30;2.42;;;1.67;;
64244;SDS011;50584;29.058;-110.966;2022-07-06T05:50:14;8.30;;;2.00;;
64244;SDS011;50584;29.058;-110.966;2022-07-06T05:52:41;7.82;;;1.73;;
64244;SDS011;50584;29.058;-110.966;2022-07-06T05:55:08;9.43;;;1.90;;
64244;SDS011;50584;29.058;-110.966;2022-07-06T05:57:35;6.45;;;1.60;;
64244;SDS011;50584;29.058;-110.966;2022-07-06T06:00:01;2.70;;;1.73;;
64244;SDS011;50584;29.058;-110.966;2022-07-06T06:02:27;3.67;;;1.52;;
64244;SDS011;50584;29.058;-110.966;2022-07-06T06:05:01;5.93;;;2.03;;
64244;SDS011;50584;29.058;-110.966;2022-07-06T06:07:27;1.85;;;1.70;;
64244;SDS011;50584;29.058;-110.966;2022-07-06T06:09:53;2.80;;;1.80;;
64244;SDS011;50584;29.058;-110.966;2022-07-06T06:12:18;1.52;;;1.40;;
64244;SDS011;50584;29.058;-110.966;2022-07-06T06:14:44;7.20;;;1.65;;
64244;SDS011;50584;29.058;-110.966;2022-07-06T06:17:10;7.35;;;2.00;;
64244;SDS011;50584;29.058;-110.966;2022-07-06T06:19:36;5.68;;;1.52;;
64244;SDS011;50584;29.058;-110.966;2022-07-06T06:22:02;7.93;;;2.20;;
64244;SDS011;50584;29.058;-110.966;2022-07-06T06:24:28;8.63;;;2.33;;
64244;SDS011;50584;29.058;-110.966;2022-07-06T06:26:54;7.22;;;1.88;;
64244;SDS011;50584;29.058;-110.966;2022-07-06T06:29:19;6.85;;;2.00;;
64244;SDS011;50584;29.058;-110.966;2022-07-06T06:31:45;12.60;;;2.50;;
64244;SDS011;50584;29.058;-110.966;2022-07-06T06:34:11;13.65;;;2.08;;
64244;SDS011;50584;29.058;-110.966;2022-07-06T06:36:37;3.38;;;1.55;;
64244;SDS011;50584;29.058;-110.966;2022-07-06T06:39:03;16.23;;;3.33;;
64244;SDS011;50584;29.058;-110.966;2022-07-06T06:41:29;35.15;;;5.03;;
64244;SDS011;50584;29.058;-110.966;2022-07-06T06:43:54;21.00;;;3.78;;
64244;SDS011;50584;29.058;-110.966;2022-07-06T06:46:20;23.80;;;3.22;;
64244;SDS011;50584;29.058;-110.966;2022-07-06T06:48:46;18.58;;;3.72;;
64244;SDS011;50584;29.058;-110.966;2022-07-06T06:51:12;28.48;;;3.38;;
64244;SDS011;50584;29.058;-110.966;2022-07-06T06:53:38;18.75;;;3.22;;
64244;SDS011;50584;29.058;-110.966;2022-07-06T06:56:03;17.73;;;3.00;;
64244;SDS011;50584;29.058;-110.966;2022-07-06T06:58:29;13.95;;;2.55;;
64244;SDS011;50584;29.058;-110.966;2022-07-06T07:00:55;11.68;;;2.65;;
64244;SDS011;50584;29.058;-110.966;2022-07-06T07:03:21;11.23;;;2.25;;
64244;SDS011;50584;29.058;-110.966;2022-07-06T07:05:47;12.15;;;1.92;;
64244;SDS011;50584;29.058;-110.966;2022-07-06T07:08:14;5.82;;;1.75;;
64244;SDS011;50584;29.058;-110.966;2022-07-06T07:10:40;6.28;;;1.88;;
64244;SDS011;50584;29.058;-110.966;2022-07-06T07:13:05;6.78;;;1.90;;
64244;SDS011;50584;29.058;-110.966;2022-07-06T07:15:31;2.40;;;1.50;;
64244;SDS011;50584;29.058;-110.966;2022-07-06T07:17:57;5.80;;;1.45;;
64244;SDS011;50584;29.058;-110.966;2022-07-06T07:20:23;3.95;;;1.70;;
64244;SDS011;50584;29.058;-110.966;2022-07-06T07:22:50;4.68;;;1.58;;
64244;SDS011;50584;29.058;-110.966;2022-07-06T07:25:16;8.55;;;1.98;;
64244;SDS011;50584;29.058;-110.966;2022-07-06T07:27:42;6.30;;;1.80;;
64244;SDS011;50584;29.058;-110.966;2022-07-06T07:30:08;2.90;;;1.60;;
64244;SDS011;50584;29.058;-110.966;2022-07-06T07:32:34;5.22;;;1.83;;
64244;SDS011;50584;29.058;-110.966;2022-07-06T07:35:00;4.70;;;1.85;;
64244;SDS011;50584;29.058;-110.966;2022-07-06T07:37:26;4.93;;;1.70;;
64244;SDS011;50584;29.058;-110.966;2022-07-06T07:39:52;6.85;;;1.95;;
64244;SDS011;50584;29.058;-110.966;2022-07-06T07:42:18;5.97;;;2.17;;
64244;SDS011;50584;29.058;-110.966;2022-07-06T07:44:44;12.88;;;2.58;;
64244;SDS011;50584;29.058;-110.966;2022-07-06T07:47:10;5.43;;;2.13;;
64244;SDS011;50584;29.058;-110.966;2022-07-06T07:49:35;7.43;;;2.13;;
64244;SDS011;50584;29.058;-110.966;2022-07-06T07:52:01;5.53;;;2.10;;
64244;SDS011;50584;29.058;-110.966;2022-07-06T07:54:27;8.48;;;2.13;;
64244;SDS011;50584;29.058;-110.966;2022-07-06T07:56:53;9.20;;;2.20;;
64244;SDS011;50584;29.058;-110.966;2022-07-06T07:59:19;6.00;;;2.00;;
64244;SDS011;50584;29.058;-110.966;2022-07-06T08:01:45;7.05;;;2.10;;
64244;SDS011;50584;29.058;-110.966;2022-07-06T08:04:11;6.75;;;2.17;;
64244;SDS011;50584;29.058;-110.966;2022-07-06T08:06:37;4.13;;;1.90;;
64244;SDS011;50584;29.058;-110.966;2022-07-06T08:09:02;4.57;;;1.65;;
64244;SDS011;50584;29.058;-110.966;2022-07-06T08:11:30;8.77;;;1.90;;
64244;SDS011;50584;29.058;-110.966;2022-07-06T08:13:56;7.35;;;1.55;;
64244;SDS011;50584;29.058;-110.966;2022-07-06T08:16:21;12.43;;;1.98;;
64244;SDS011;50584;29.058;-110.966;2022-07-06T08:18:47;10.90;;;1.92;;
64244;SDS011;50584;29.058;-110.966;2022-07-06T08:21:13;4.20;;;1.60;;
64244;SDS011;50584;29.058;-110.966;2022-07-06T08:23:39;2.80;;;1.77;;
64244;SDS011;50584;29.058;-110.966;2022-07-06T08:26:05;5.78;;;1.80;;
64244;SDS011;50584;29.058;-110.966;2022-07-06T08:28:31;4.53;;;1.83;;
64244;SDS011;50584;29.058;-110.966;2022-07-06T08:30:57;3.72;;;2.05;;
64244;SDS011;50584;29.058;-110.966;2022-07-06T08:33:23;9.80;;;2.30;;
64244;SDS011;50584;29.058;-110.966;2022-07-06T08:35:49;2.38;;;1.70;;
64244;SDS011;50584;29.058;-110.966;2022-07-06T08:38:15;7.30;;;2.50;;
64244;SDS011;50584;29.058;-110.966;2022-07-06T08:40:41;11.45;;;2.38;;
64244;SDS011;50584;29.058;-110.966;2022-07-06T08:43:09;6.95;;;1.92;;
64244;SDS011;50584;29.058;-110.966;2022-07-06T08:45:34;11.63;;;1.92;;
64244;SDS011;50584;29.058;-110.966;2022-07-06T08:48:04;8.95;;;2.33;;
64244;SDS011;50584;29.058;-110.966;2022-07-06T08:50:31;4.27;;;1.77;;
64244;SDS011;50584;29.058;-110.966;2022-07-06T08:52:57;8.65;;;2.05;;
64244;SDS011;50584;29.058;-110.966;2022-07-06T08:55:24;11.45;;;2.17;;
64244;SDS011;50584;29.058;-110.966;2022-07-06T08:57:50;6.22;;;2.15;;
64244;SDS011;50584;29.058;-110.966;2022-07-06T09:00:16;7.05;;;2.15;;
64244;SDS011;50584;29.058;-110.966;2022-07-06T09:02:42;9.77;;;2.70;;
64244;SDS011;50584;29.058;-110.966;2022-07-06T09:05:09;8.73;;;2.55;;
64244;SDS011;50584;29.058;-110.966;2022-07-06T09:07:38;8.43;;;2.40;;
64244;SDS011;50584;29.058;-110.966;2022-07-06T09:10:05;5.75;;;1.80;;
64244;SDS011;50584;29.058;-110.966;2022-07-06T09:12:32;6.05;;;2.05;;
64244;SDS011;50584;29.058;-110.966;2022-07-06T09:14:58;8.02;;;2.08;;
64244;SDS011;50584;29.058;-110.966;2022-07-06T09:17:27;13.55;;;2.58;;
64244;SDS011;50584;29.058;-110.966;2022-07-06T09:19:53;14.93;;;3.75;;
64244;SDS011;50584;29.058;-110.966;2022-07-06T09:22:30;11.65;;;3.50;;
64244;SDS011;50584;29.058;-110.966;2022-07-06T09:25:30;13.32;;;4.10;;
64244;SDS011;50584;29.058;-110.966;2022-07-06T09:27:48;9.40;;;3.67;;
64244;SDS011;50584;29.058;-110.966;2022-07-06T09:30:20;14.13;;;5.18;;
64244;SDS011;50584;29.058;-110.966;2022-07-06T09:32:47;8.48;;;4.40;;
64244;SDS011;50584;29.058;-110.966;2022-07-06T09:35:20;10.05;;;4.65;;
64244;SDS011;50584;29.058;-110.966;2022-07-06T09:37:46;10.27;;;4.05;;
64244;SDS011;50584;29.058;-110.966;2022-07-06T09:40:17;10.02;;;4.32;;
64244;SDS011;50584;29.058;-110.966;2022-07-06T09:42:43;10.18;;;3.40;;
64244;SDS011;50584;29.058;-110.966;2022-07-06T09:45:09;10.18;;;3.80;;
64244;SDS011;50584;29.058;-110.966;2022-07-06T09:47:35;11.40;;;4.20;;
64244;SDS011;50584;29.058;-110.966;2022-07-06T09:50:05;19.50;;;3.83;;
64244;SDS011;50584;29.058;-110.966;2022-07-06T09:52:34;10.10;;;3.15;;
64244;SDS011;50584;29.058;-110.966;2022-07-06T09:55:00;12.07;;;3.13;;
64244;SDS011;50584;29.058;-110.966;2022-07-06T09:57:31;13.48;;;2.70;;
64244;SDS011;50584;29.058;-110.966;2022-07-06T09:59:56;12.20;;;3.40;;
64244;SDS011;50584;29.058;-110.966;2022-07-06T10:02:23;12.02;;;3.22;;
64244;SDS011;50584;29.058;-110.966;2022-07-06T10:04:52;7.88;;;2.75;;
64244;SDS011;50584;29.058;-110.966;2022-07-06T10:07:19;5.22;;;2.85;;
64244;SDS011;50584;29.058;-110.966;2022-07-06T10:09:46;4.28;;;2.40;;
64244;SDS011;50584;29.058;-110.966;2022-07-06T10:12:13;6.97;;;2.85;;
64244;SDS011;50584;29.058;-110.966;2022-07-06T10:14:40;11.07;;;2.70;;
64244;SDS011;50584;29.058;-110.966;2022-07-06T10:17:07;8.60;;;3.10;;
64244;SDS011;50584;29.058;-110.966;2022-07-06T10:19:33;10.13;;;3.60;;
64244;SDS011;50584;29.058;-110.966;2022-07-06T10:21:59;8.57;;;3.15;;
64244;SDS011;50584;29.058;-110.966;2022-07-06T10:24:26;14.48;;;3.70;;
64244;SDS011;50584;29.058;-110.966;2022-07-06T10:26:52;12.07;;;3.60;;
64244;SDS011;50584;29.058;-110.966;2022-07-06T10:29:18;11.55;;;3.13;;
64244;SDS011;50584;29.058;-110.966;2022-07-06T10:31:44;7.07;;;2.80;;
64244;SDS011;50584;29.058;-110.966;2022-07-06T10:34:12;6.18;;;2.60;;
64244;SDS011;50584;29.058;-110.966;2022-07-06T10:36:39;8.95;;;2.63;;
64244;SDS011;50584;29.058;-110.966;2022-07-06T10:39:05;4.97;;;2.40;;
64244;SDS011;50584;29.058;-110.966;2022-07-06T10:41:51;5.40;;;2.28;;
64244;SDS011;50584;29.058;-110.966;2022-07-06T10:44:18;8.85;;;2.20;;
64244;SDS011;50584;29.058;-110.966;2022-07-06T10:49:17;8.50;;;2.38;;
64244;SDS011;50584;29.058;-110.966;2022-07-06T10:51:43;9.05;;;2.05;;
64244;SDS011;50584;29.058;-110.966;2022-07-06T10:54:09;12.52;;;2.55;;
64244;SDS011;50584;29.058;-110.966;2022-07-06T10:56:53;12.27;;;2.47;;
64244;SDS011;50584;29.058;-110.966;2022-07-06T10:59:22;4.40;;;2.13;;
64244;SDS011;50584;29.058;-110.966;2022-07-06T11:04:33;4.07;;;2.30;;
64244;SDS011;50584;29.058;-110.966;2022-07-06T11:07:06;8.98;;;2.10;;
64244;SDS011;50584;29.058;-110.966;2022-07-06T11:09:32;8.65;;;2.30;;
64244;SDS011;50584;29.058;-110.966;2022-07-06T11:11:58;9.73;;;2.53;;
64244;SDS011;50584;29.058;-110.966;2022-07-06T11:14:36;5.47;;;2.17;;
64244;SDS011;50584;29.058;-110.966;2022-07-06T11:17:03;3.78;;;2.20;;
64244;SDS011;50584;29.058;-110.966;2022-07-06T11:19:29;4.93;;;1.95;;
64244;SDS011;50584;29.058;-110.966;2022-07-06T11:22:06;7.97;;;2.00;;
64244;SDS011;50584;29.058;-110.966;2022-07-06T11:24:35;8.95;;;2.42;;
64244;SDS011;50584;29.058;-110.966;2022-07-06T11:27:01;3.25;;;2.15;;
64244;SDS011;50584;29.058;-110.966;2022-07-06T11:29:28;5.88;;;2.00;;
64244;SDS011;50584;29.058;-110.966;2022-07-06T11:31:55;9.60;;;2.80;;
64244;SDS011;50584;29.058;-110.966;2022-07-06T11:34:25;2.08;;;1.92;;
64244;SDS011;50584;29.058;-110.966;2022-07-06T11:36:58;6.47;;;2.28;;
64244;SDS011;50584;29.058;-110.966;2022-07-06T11:39:27;6.57;;;2.15;;
64244;SDS011;50584;29.058;-110.966;2022-07-06T11:41:54;7.72;;;2.22;;
64244;SDS011;50584;29.058;-110.966;2022-07-06T11:44:20;11.55;;;2.50;;
64244;SDS011;50584;29.058;-110.966;2022-07-06T11:46:46;5.90;;;2.28;;
64244;SDS011;50584;29.058;-110.966;2022-07-06T11:49:12;8.30;;;2.15;;
64244;SDS011;50584;29.058;-110.966;2022-07-06T11:51:38;4.18;;;1.92;;
64244;SDS011;50584;29.058;-110.966;2022-07-06T11:54:11;4.60;;;2.05;;
64244;SDS011;50584;29.058;-110.966;2022-07-06T11:56:37;5.93;;;2.20;;
64244;SDS011;50584;29.058;-110.966;2022-07-06T11:59:03;6.65;;;2.65;;
64244;SDS011;50584;29.058;-110.966;2022-07-06T12:01:29;2.88;;;2.15;;
64244;SDS011;50584;29.058;-110.966;2022-07-06T12:03:59;4.55;;;2.00;;
64244;SDS011;50584;29.058;-110.966;2022-07-06T12:06:26;5.10;;;2.28;;
64244;SDS011;50584;29.058;-110.966;2022-07-06T12:08:56;3.92;;;1.83;;
64244;SDS011;50584;29.058;-110.966;2022-07-06T12:11:29;3.83;;;2.10;;
64244;SDS011;50584;29.058;-110.966;2022-07-06T12:13:56;6.78;;;2.22;;
64244;SDS011;50584;29.058;-110.966;2022-07-06T12:16:27;3.53;;;2.28;;
64244;SDS011;50584;29.058;-110.966;2022-07-06T12:18:54;5.45;;;2.25;;
64244;SDS011;50584;29.058;-110.966;2022-07-06T12:21:19;12.52;;;2.40;;
64244;SDS011;50584;29.058;-110.966;2022-07-06T12:23:49;9.82;;;2.40;;
64244;SDS011;50584;29.058;-110.966;2022-07-06T12:26:17;8.57;;;2.30;;
64244;SDS011;50584;29.058;-110.966;2022-07-06T12:28:43;6.45;;;2.38;;
64244;SDS011;50584;29.058;-110.966;2022-07-06T12:31:09;7.80;;;2.17;;
64244;SDS011;50584;29.058;-110.966;2022-07-06T12:33:36;7.05;;;2.45;;
64244;SDS011;50584;29.058;-110.966;2022-07-06T12:36:09;3.25;;;2.40;;
64244;SDS011;50584;29.058;-110.966;2022-07-06T12:38:34;7.38;;;2.47;;
64244;SDS011;50584;29.058;-110.966;2022-07-06T12:41:00;5.18;;;2.38;;
64244;SDS011;50584;29.058;-110.966;2022-07-06T12:43:40;2.38;;;2.17;;
64244;SDS011;50584;29.058;-110.966;2022-07-06T12:46:22;4.93;;;2.45;;
64244;SDS011;50584;29.058;-110.966;2022-07-06T12:48:52;3.88;;;1.90;;
64244;SDS011;50584;29.058;-110.966;2022-07-06T12:51:18;9.23;;;1.80;;
64244;SDS011;50584;29.058;-110.966;2022-07-06T12:53:44;8.13;;;2.40;;
64244;SDS011;50584;29.058;-110.966;2022-07-06T12:56:10;6.63;;;2.22;;
64244;SDS011;50584;29.058;-110.966;2022-07-06T12:58:36;6.40;;;2.08;;
64244;SDS011;50584;29.058;-110.966;2022-07-06T13:01:02;7.13;;;2.35;;
64244;SDS011;50584;29.058;-110.966;2022-07-06T13:03:37;6.30;;;2.30;;
64244;SDS011;50584;29.058;-110.966;2022-07-06T13:06:04;5.70;;;2.17;;
64244;SDS011;50584;29.058;-110.966;2022-07-06T13:08:30;8.38;;;2.20;;
64244;SDS011;50584;29.058;-110.966;2022-07-06T13:10:56;4.82;;;2.20;;
64244;SDS011;50584;29.058;-110.966;2022-07-06T13:13:22;7.82;;;2.30;;
64244;SDS011;50584;29.058;-110.966;2022-07-06T13:15:48;9.52;;;2.30;;
64244;SDS011;50584;29.058;-110.966;2022-07-06T13:18:15;5.60;;;2.35;;
64244;SDS011;50584;29.058;-110.966;2022-07-06T13:20:44;6.88;;;2.50;;
64244;SDS011;50584;29.058;-110.966;2022-07-06T13:23:10;3.75;;;2.03;;
64244;SDS011;50584;29.058;-110.966;2022-07-06T13:25:35;4.22;;;1.85;;
64244;SDS011;50584;29.058;-110.966;2022-07-06T13:28:01;4.20;;;1.83;;
64244;SDS011;50584;29.058;-110.966;2022-07-06T13:30:27;7.88;;;2.00;;
64244;SDS011;50584;29.058;-110.966;2022-07-06T13:32:53;8.90;;;2.13;;
64244;SDS011;50584;29.058;-110.966;2022-07-06T13:35:19;9.35;;;2.47;;
64244;SDS011;50584;29.058;-110.966;2022-07-06T13:37:45;7.88;;;3.08;;
64244;SDS011;50584;29.058;-110.966;2022-07-06T13:40:14;11.85;;;4.60;;
64244;SDS011;50584;29.058;-110.966;2022-07-06T13:42:40;9.55;;;2.67;;
64244;SDS011;50584;29.058;-110.966;2022-07-06T13:45:06;7.18;;;3.22;;
64244;SDS011;50584;29.058;-110.966;2022-07-06T13:47:32;8.80;;;3.42;;
64244;SDS011;50584;29.058;-110.966;2022-07-06T13:49:58;10.43;;;3.35;;
64244;SDS011;50584;29.058;-110.966;2022-07-06T13:52:23;5.55;;;2.78;;
64244;SDS011;50584;29.058;-110.966;2022-07-06T13:54:49;9.32;;;3.13;;
64244;SDS011;50584;29.058;-110.966;2022-07-06T13:57:15;4.18;;;2.80;;
64244;SDS011;50584;29.058;-110.966;2022-07-06T13:59:41;8.38;;;2.97;;
64244;SDS011;50584;29.058;-110.966;2022-07-06T14:02:08;8.07;;;2.47;;
64244;SDS011;50584;29.058;-110.966;2022-07-06T14:04:34;8.13;;;2.25;;
64244;SDS011;50584;29.058;-110.966;2022-07-06T14:06:59;8.10;;;2.40;;
64244;SDS011;50584;29.058;-110.966;2022-07-06T14:09:26;14.50;;;2.72;;